createdAt,value
2023-05-08T00:00:15.145Z,1.63
2023-05-08T00:03:00.865Z,2.28
2023-05-08T00:05:46.563Z,2.17
2023-05-08T00:08:32.069Z,1.27
2023-05-08T00:11:17.655Z,1.17
2023-05-08T00:14:02.942Z,0.85
2023-05-08T00:16:48.452Z,0.85
2023-05-08T00:19:33.636Z,2.17
2023-05-08T00:22:19.638Z,1.92
2023-05-08T00:25:06.000Z,1.88
2023-05-08T00:27:51.604Z,0.68
2023-05-08T00:30:36.929Z,3.45
2023-05-08T00:33:22.299Z,2.15
2023-05-08T00:36:08.182Z,0.60
2023-05-08T00:38:53.888Z,2.25
2023-05-08T00:41:39.241Z,7.13
2023-05-08T00:44:24.869Z,2.80
2023-05-08T00:47:10.191Z,1.52
2023-05-08T00:49:56.394Z,2.85
2023-05-08T00:52:42.060Z,0.75
2023-05-08T00:55:28.056Z,3.33
2023-05-08T00:58:13.922Z,3.00
2023-05-08T01:01:00.222Z,1.95
2023-05-08T01:03:46.207Z,1.45
2023-05-08T01:06:32.054Z,2.17
2023-05-08T01:09:17.716Z,2.05
2023-05-08T01:12:15.454Z,2.05
2023-05-08T01:15:07.641Z,5.93
2023-05-08T01:18:15.315Z,5.30
2023-05-08T01:21:27.461Z,1.25
2023-05-08T01:24:34.188Z,8.23
2023-05-08T01:27:25.857Z,3.42
2023-05-08T01:30:49.389Z,9.07
2023-05-08T01:34:10.590Z,3.20
2023-05-08T01:37:03.470Z,5.28
2023-05-08T01:40:26.752Z,1.08
2023-05-08T01:43:30.566Z,2.47
2023-05-08T01:46:28.506Z,3.70
2023-05-08T01:49:50.669Z,1.35
2023-05-08T01:53:03.693Z,4.95
2023-05-08T01:55:53.656Z,3.88
2023-05-08T01:58:41.436Z,3.50
2023-05-08T02:01:29.515Z,8.00
2023-05-08T02:04:16.984Z,3.25
2023-05-08T02:07:03.322Z,2.60
2023-05-08T02:09:49.732Z,0.55
2023-05-08T02:12:38.291Z,1.25
2023-05-08T02:15:25.742Z,0.82
2023-05-08T02:18:13.059Z,1.15
2023-05-08T02:21:00.925Z,1.35
2023-05-08T02:23:47.834Z,1.23
2023-05-08T02:26:35.497Z,2.50
2023-05-08T02:29:23.885Z,3.50
2023-05-08T02:32:10.643Z,2.03
2023-05-08T02:35:03.153Z,1.60
2023-05-08T02:37:55.487Z,2.90
2023-05-08T02:40:47.386Z,0.83
2023-05-08T02:46:26.500Z,2.42
2023-05-08T02:49:26.805Z,2.30
2023-05-08T02:52:29.888Z,0.32
2023-05-08T02:55:43.101Z,1.98
2023-05-08T03:01:31.769Z,2.25
2023-05-08T03:04:28.842Z,4.57
2023-05-08T03:07:15.657Z,2.35
2023-05-08T03:10:05.530Z,2.83
2023-05-08T03:12:56.104Z,6.95
2023-05-08T03:15:46.872Z,2.75
2023-05-08T03:18:39.601Z,1.75
2023-05-08T03:21:29.120Z,4.00
2023-05-08T03:24:17.579Z,1.98
2023-05-08T03:27:03.552Z,2.67
2023-05-08T03:29:52.326Z,3.50
2023-05-08T03:32:40.305Z,4.05
2023-05-08T03:35:27.190Z,3.85
2023-05-08T03:38:13.451Z,5.00
2023-05-08T03:41:00.774Z,0.60
2023-05-08T03:43:46.716Z,0.55
2023-05-08T03:46:33.361Z,0.90
2023-05-08T03:49:23.332Z,1.10
2023-05-08T03:52:09.138Z,3.90
2023-05-08T03:54:54.764Z,0.70
2023-05-08T03:57:57.239Z,0.30
2023-05-08T04:01:01.764Z,0.30
2023-05-08T04:04:07.932Z,0.52
2023-05-08T04:07:04.174Z,0.30
2023-05-08T04:10:16.542Z,1.45
2023-05-08T04:13:07.744Z,1.40
2023-05-08T04:16:06.769Z,1.08
2023-05-08T04:19:01.479Z,0.57
2023-05-08T04:21:50.103Z,0.60
2023-05-08T04:24:42.121Z,4.63
2023-05-08T04:27:29.341Z,2.78
2023-05-08T04:30:15.822Z,0.90
2023-05-08T04:33:05.096Z,0.55
2023-05-08T04:35:51.558Z,0.60
2023-05-08T04:38:37.933Z,1.85
2023-05-08T04:41:25.097Z,1.25
2023-05-08T04:44:11.583Z,3.13
2023-05-08T04:46:57.220Z,0.50
2023-05-08T04:49:44.795Z,0.43
2023-05-08T04:52:30.197Z,2.53
2023-05-08T04:55:15.676Z,0.47
2023-05-08T04:58:01.910Z,0.57
2023-05-08T05:00:47.159Z,1.30
2023-05-08T05:03:32.651Z,0.30
2023-05-08T05:06:18.992Z,0.30
2023-05-08T05:09:05.328Z,0.20
2023-05-08T05:11:51.552Z,0.98
2023-05-08T05:14:37.735Z,0.10
2023-05-08T05:17:23.122Z,0.20
2023-05-08T05:20:09.046Z,1.65
2023-05-08T05:22:54.544Z,0.10
2023-05-08T05:25:40.013Z,1.20
2023-05-08T05:28:26.202Z,2.58
2023-05-08T05:31:11.734Z,0.20
2023-05-08T05:33:57.427Z,0.10
2023-05-08T05:36:43.806Z,1.27
2023-05-08T05:39:29.165Z,0.28
2023-05-08T05:42:15.555Z,0.13
2023-05-08T05:45:02.055Z,1.52
2023-05-08T05:47:50.503Z,2.05
2023-05-08T05:50:37.991Z,0.20
2023-05-08T05:53:24.256Z,0.10
2023-05-08T05:56:09.500Z,0.10
2023-05-08T05:58:55.166Z,0.82
2023-05-08T06:01:41.036Z,1.85
2023-05-08T06:04:27.209Z,0.10
2023-05-08T06:07:12.633Z,0.38
2023-05-08T06:09:58.109Z,0.73
2023-05-08T06:12:43.410Z,0.20
2023-05-08T06:15:29.752Z,0.10
2023-05-08T06:18:15.878Z,0.20
2023-05-08T06:21:01.586Z,1.55
2023-05-08T06:23:47.241Z,0.85
2023-05-08T06:26:32.423Z,0.40
2023-05-08T06:29:17.691Z,0.10
2023-05-08T06:32:03.260Z,0.50
2023-05-08T06:34:49.108Z,0.20
2023-05-08T06:37:34.773Z,0.20
2023-05-08T06:40:20.437Z,0.20
2023-05-08T06:43:06.013Z,0.55
2023-05-08T06:45:53.166Z,0.10
2023-05-08T06:48:38.646Z,0.63
2023-05-08T06:51:24.157Z,0.10
2023-05-08T06:54:09.760Z,0.35
2023-05-08T06:56:55.086Z,0.90
2023-05-08T06:59:40.687Z,0.08
2023-05-08T07:02:26.453Z,0.17
2023-05-08T07:05:12.300Z,0.40
2023-05-08T07:07:58.366Z,0.17
2023-05-08T07:10:43.734Z,0.63
2023-05-08T07:13:29.302Z,4.47
2023-05-08T07:16:16.310Z,0.10
2023-05-08T07:19:02.157Z,0.10
2023-05-08T07:21:47.674Z,0.20
2023-05-08T07:24:33.678Z,0.35
2023-05-08T07:27:20.133Z,0.20
2023-05-08T07:30:06.353Z,0.20
2023-05-08T07:32:51.995Z,0.20
2023-05-08T07:35:41.034Z,0.10
2023-05-08T07:38:26.834Z,0.20
2023-05-08T07:41:12.433Z,2.17
2023-05-08T07:43:58.462Z,1.65
2023-05-08T07:46:44.165Z,0.20
2023-05-08T07:49:29.983Z,0.20
2023-05-08T07:52:15.803Z,0.30
2023-05-08T07:55:01.117Z,2.35
2023-05-08T07:57:46.437Z,0.40
2023-05-08T08:00:32.029Z,1.63
2023-05-08T08:03:17.563Z,0.13
2023-05-08T08:06:03.264Z,0.82
2023-05-08T08:08:48.674Z,1.38
2023-05-08T08:11:34.204Z,1.58
2023-05-08T08:14:19.973Z,0.10
2023-05-08T08:17:05.807Z,0.77
2023-05-08T08:19:51.277Z,0.47
2023-05-08T08:22:37.683Z,0.25
2023-05-08T08:25:23.064Z,0.50
2023-05-08T08:28:08.469Z,0.35
2023-05-08T08:30:53.927Z,0.20
2023-05-08T08:33:39.311Z,0.15
2023-05-08T08:36:24.629Z,3.03
2023-05-08T08:39:12.472Z,3.63
2023-05-08T08:41:58.918Z,0.68
2023-05-08T08:44:44.663Z,2.50
2023-05-08T08:47:37.498Z,0.22
2023-05-08T08:50:27.286Z,0.28
2023-05-08T08:53:27.329Z,1.27
2023-05-08T08:56:15.703Z,1.10
2023-05-08T08:59:02.132Z,1.83
2023-05-08T09:01:56.593Z,5.68
2023-05-08T09:04:42.119Z,0.73
2023-05-08T09:07:27.859Z,0.28
2023-05-08T09:10:15.589Z,2.30
2023-05-08T09:13:01.352Z,0.32
2023-05-08T09:15:46.963Z,3.90
2023-05-08T09:18:32.530Z,0.55
2023-05-08T09:21:18.562Z,0.93
2023-05-08T09:24:05.061Z,1.00
2023-05-08T09:26:50.732Z,1.70
2023-05-08T09:29:36.434Z,1.00
2023-05-08T09:32:21.813Z,2.50
2023-05-08T09:35:09.437Z,3.03
2023-05-08T09:37:57.257Z,1.00
2023-05-08T09:40:42.785Z,0.80
2023-05-08T09:43:28.022Z,0.90
2023-05-08T09:46:19.467Z,0.43
2023-05-08T09:49:04.999Z,1.10
2023-05-08T09:51:54.386Z,0.40
2023-05-08T09:54:39.752Z,11.32
2023-05-08T09:57:26.056Z,5.80
2023-05-08T10:00:13.771Z,1.95
2023-05-08T10:03:02.856Z,43.20
2023-05-08T10:05:48.616Z,13.05
2023-05-08T10:08:34.088Z,3.40
2023-05-08T10:11:21.383Z,0.30
2023-05-08T10:14:06.930Z,4.07
2023-05-08T10:16:53.673Z,2.47
2023-05-08T10:19:45.056Z,3.03
2023-05-08T10:22:33.719Z,0.40
2023-05-08T10:25:21.169Z,3.22
2023-05-08T10:28:24.195Z,0.85
2023-05-08T10:31:14.435Z,2.50
2023-05-08T10:34:02.709Z,2.00
2023-05-08T10:36:48.479Z,4.05
2023-05-08T10:39:34.515Z,1.25
2023-05-08T10:42:20.450Z,3.78
2023-05-08T10:45:06.723Z,1.75
2023-05-08T10:48:05.472Z,1.05
2023-05-08T10:51:08.224Z,0.60
2023-05-08T10:54:08.723Z,3.08
2023-05-08T10:57:10.646Z,0.80
2023-05-08T10:59:56.227Z,3.03
2023-05-08T11:02:41.866Z,0.65
2023-05-08T11:05:28.788Z,0.40
2023-05-08T11:08:27.240Z,0.35
2023-05-08T11:11:34.094Z,0.50
2023-05-08T11:14:21.261Z,3.72
2023-05-08T11:17:08.334Z,0.65
2023-05-08T11:19:59.218Z,5.55
2023-05-08T11:22:48.265Z,1.35
2023-05-08T11:25:44.287Z,33.08
2023-05-08T11:28:38.047Z,6.15
2023-05-08T11:31:24.596Z,3.42
2023-05-08T11:34:44.119Z,2.55
2023-05-08T11:37:32.043Z,9.20
2023-05-08T11:40:54.866Z,2.17
2023-05-08T11:44:05.316Z,3.85
2023-05-08T11:46:53.832Z,3.60
2023-05-08T11:49:39.328Z,4.85
2023-05-08T11:52:24.629Z,2.33
2023-05-08T11:55:12.188Z,4.55
2023-05-08T11:57:57.524Z,82.30
2023-05-08T12:00:45.412Z,39.72
2023-05-08T12:03:31.361Z,185.88
2023-05-08T12:06:18.961Z,16.83
2023-05-08T12:09:13.688Z,2.42
2023-05-08T12:11:59.242Z,7.28
2023-05-08T12:14:49.208Z,4.75
2023-05-08T12:17:35.907Z,3.05
2023-05-08T12:20:21.390Z,2.38
2023-05-08T12:23:06.906Z,1.02
2023-05-08T12:25:56.039Z,0.40
2023-05-08T12:28:44.847Z,2.80
2023-05-08T12:31:30.723Z,0.85
2023-05-08T12:34:16.526Z,1.33
2023-05-08T12:37:03.452Z,6.72
2023-05-08T12:39:48.639Z,8.77
2023-05-08T12:42:50.802Z,3.60
2023-05-08T12:45:41.461Z,3.35
2023-05-08T12:48:27.306Z,5.15
2023-05-08T12:51:12.604Z,1.27
2023-05-08T12:53:57.998Z,3.35
2023-05-08T12:56:46.865Z,5.60
2023-05-08T12:59:33.289Z,3.58
2023-05-08T13:02:24.129Z,3.47
2023-05-08T13:05:09.692Z,0.80
2023-05-08T13:08:06.219Z,6.25
2023-05-08T13:10:53.858Z,1.42
2023-05-08T13:13:39.443Z,0.60
2023-05-08T13:16:24.978Z,2.17
2023-05-08T13:19:10.499Z,0.63
2023-05-08T13:21:56.076Z,3.05
2023-05-08T13:24:41.386Z,1.80
2023-05-08T13:27:26.947Z,1.83
2023-05-08T13:30:13.830Z,2.25
2023-05-08T13:32:59.921Z,2.80
2023-05-08T13:35:45.733Z,1.63
2023-05-08T13:38:31.404Z,3.72
2023-05-08T13:41:17.478Z,2.00
2023-05-08T13:44:02.909Z,0.80
2023-05-08T13:46:48.568Z,3.78
2023-05-08T13:49:34.045Z,2.63
2023-05-08T13:52:19.398Z,3.30
2023-05-08T13:55:12.941Z,3.13
2023-05-08T13:57:58.943Z,3.83
2023-05-08T14:00:45.739Z,1.55
2023-05-08T14:03:31.367Z,3.88
2023-05-08T14:06:16.840Z,1.27
2023-05-08T14:09:02.287Z,5.40
2023-05-08T14:11:47.890Z,1.63
2023-05-08T14:14:34.449Z,2.80
2023-05-08T14:17:20.306Z,1.70
2023-05-08T14:20:06.757Z,2.42
2023-05-08T14:25:37.851Z,1.70
2023-05-08T14:28:23.535Z,2.97
2023-05-08T14:31:09.262Z,1.58
2023-05-08T14:33:54.418Z,1.95
2023-05-08T14:36:39.893Z,4.57
2023-05-08T14:39:25.308Z,2.03
2023-05-08T14:44:59.562Z,2.70
2023-05-08T14:47:45.264Z,8.30
2023-05-08T14:50:30.961Z,2.45
2023-05-08T14:53:16.788Z,1.98
2023-05-08T14:56:04.070Z,4.40
2023-05-08T14:58:51.200Z,2.95
2023-05-08T15:01:36.948Z,2.55
2023-05-08T15:04:22.511Z,4.65
2023-05-08T15:07:08.282Z,3.42
2023-05-08T15:09:53.499Z,1.13
2023-05-08T15:12:39.206Z,1.25
2023-05-08T15:15:24.708Z,5.53
2023-05-08T15:18:09.979Z,2.03
2023-05-08T15:20:55.557Z,2.47
2023-05-08T15:23:41.303Z,1.23
2023-05-08T15:26:26.976Z,4.90
2023-05-08T15:29:12.254Z,5.53
2023-05-08T15:31:57.603Z,4.50
2023-05-08T15:34:42.757Z,3.33
2023-05-08T15:37:28.265Z,1.10
2023-05-08T15:40:14.043Z,3.50
2023-05-08T15:43:00.344Z,2.88
2023-05-08T15:45:45.795Z,2.78
2023-05-08T15:48:31.073Z,0.60
2023-05-08T15:51:16.447Z,1.80
2023-05-08T15:54:01.993Z,2.70
2023-05-08T15:56:47.396Z,7.68
2023-05-08T15:59:32.975Z,4.47
2023-05-08T16:02:18.628Z,3.65
2023-05-08T16:05:04.010Z,3.70
2023-05-08T16:07:51.748Z,4.78
2023-05-08T16:10:36.943Z,1.77
2023-05-08T16:13:22.417Z,2.58
2023-05-08T16:16:08.120Z,7.65
2023-05-08T16:18:53.222Z,4.35
2023-05-08T16:21:38.717Z,2.28
2023-05-08T16:24:24.351Z,1.67
2023-05-08T16:27:09.722Z,1.38
2023-05-08T16:29:55.132Z,4.18
2023-05-08T16:32:40.586Z,2.05
2023-05-08T16:35:26.087Z,5.43
2023-05-08T16:38:11.481Z,4.35
2023-05-08T16:41:07.408Z,3.45
2023-05-08T16:43:52.644Z,7.05
2023-05-08T16:46:38.151Z,3.13
2023-05-08T16:49:23.667Z,3.63
2023-05-08T16:52:09.215Z,2.85
2023-05-08T16:54:54.479Z,2.78
2023-05-08T16:57:39.793Z,3.00
2023-05-08T17:00:25.228Z,3.35
2023-05-08T17:03:10.695Z,1.75
2023-05-08T17:05:55.996Z,2.17
2023-05-08T17:08:41.419Z,3.03
2023-05-08T17:11:26.756Z,2.72
2023-05-08T17:14:12.428Z,2.03
2023-05-08T17:16:57.817Z,2.15
2023-05-08T17:19:43.719Z,3.65
2023-05-08T17:22:29.111Z,1.50
2023-05-08T17:25:14.727Z,5.05
2023-05-08T17:28:01.680Z,3.17
2023-05-08T17:30:48.213Z,3.40
2023-05-08T17:33:33.660Z,3.13
2023-05-08T17:36:19.463Z,3.83
2023-05-08T17:39:04.990Z,1.95
2023-05-08T17:41:51.534Z,1.08
2023-05-08T17:44:37.140Z,4.45
2023-05-08T17:47:22.464Z,6.95
2023-05-08T17:50:09.351Z,2.30
2023-05-08T17:52:54.752Z,2.97
2023-05-08T17:55:40.236Z,1.25
2023-05-08T17:58:25.542Z,3.50
2023-05-08T18:01:10.953Z,0.55
2023-05-08T18:03:56.270Z,1.95
2023-05-08T18:06:43.428Z,4.82
2023-05-08T18:09:28.758Z,3.78
2023-05-08T18:12:14.176Z,1.92
2023-05-08T18:14:59.775Z,7.35
2023-05-08T18:17:45.042Z,5.78
2023-05-08T18:20:30.402Z,2.30
2023-05-08T18:23:16.148Z,3.45
2023-05-08T18:26:02.120Z,4.75
2023-05-08T18:28:47.411Z,6.95
2023-05-08T18:31:33.096Z,9.45
2023-05-08T18:34:18.713Z,9.00
2023-05-08T18:37:04.090Z,6.13
2023-05-08T18:39:49.501Z,6.75
2023-05-08T18:42:34.810Z,7.35
2023-05-08T18:45:20.239Z,6.72
2023-05-08T18:48:05.871Z,6.95
2023-05-08T18:50:51.738Z,6.30
2023-05-08T18:53:38.584Z,4.82
2023-05-08T18:56:24.115Z,3.55
2023-05-08T18:59:09.632Z,3.15
2023-05-08T19:01:54.953Z,5.30
2023-05-08T19:04:40.585Z,6.35
2023-05-08T19:07:26.291Z,6.90
2023-05-08T19:10:12.564Z,7.82
2023-05-08T19:12:58.590Z,4.65
2023-05-08T19:15:43.803Z,4.68
2023-05-08T19:18:29.965Z,2.88
2023-05-08T19:21:15.656Z,6.18
2023-05-08T19:24:01.499Z,5.65
2023-05-08T19:26:47.619Z,5.75
2023-05-08T19:29:35.316Z,4.70
2023-05-08T19:32:21.168Z,4.43
2023-05-08T19:35:08.252Z,7.20
2023-05-08T19:37:53.698Z,3.65
2023-05-08T19:40:52.484Z,4.20
2023-05-08T19:43:41.753Z,5.88
2023-05-08T19:46:27.078Z,2.22
2023-05-08T19:49:14.456Z,4.25
2023-05-08T19:51:59.765Z,13.60
2023-05-08T19:54:46.747Z,6.22
2023-05-08T19:57:32.456Z,22.80
2023-05-08T20:00:18.056Z,74.50
2023-05-08T20:03:04.061Z,104.43
2023-05-08T20:05:51.162Z,62.92
2023-05-08T20:08:36.765Z,104.53
2023-05-08T20:11:22.111Z,97.78
2023-05-08T20:14:07.632Z,78.47
2023-05-08T20:16:52.801Z,160.50
2023-05-08T20:19:38.310Z,113.60
2023-05-08T20:22:23.603Z,99.80
2023-05-08T20:25:09.168Z,73.32
2023-05-08T20:27:54.885Z,44.30
2023-05-08T20:30:40.660Z,20.35
2023-05-08T20:33:26.372Z,20.88
2023-05-08T20:36:11.618Z,17.42
2023-05-08T20:38:57.076Z,6.75
2023-05-08T20:41:42.776Z,11.40
2023-05-08T20:44:28.493Z,10.15
2023-05-08T20:47:14.159Z,5.82
2023-05-08T20:49:59.529Z,4.88
2023-05-08T20:52:44.947Z,5.15
2023-05-08T20:55:30.410Z,4.78
2023-05-08T20:58:15.798Z,11.23
2023-05-08T21:01:01.122Z,6.82
2023-05-08T21:03:46.357Z,11.88
2023-05-08T21:06:32.230Z,8.20
2023-05-08T21:09:17.598Z,8.70
2023-05-08T21:12:03.151Z,8.32
2023-05-08T21:14:48.801Z,5.30
2023-05-08T21:17:34.217Z,6.78
2023-05-08T21:20:21.358Z,4.75
2023-05-08T21:23:06.784Z,8.45
2023-05-08T21:25:53.107Z,5.00
2023-05-08T21:28:38.499Z,4.70
2023-05-08T21:31:24.085Z,14.65
2023-05-08T21:34:09.715Z,7.13
2023-05-08T21:36:55.412Z,5.68
2023-05-08T21:39:41.648Z,6.03
2023-05-08T21:42:27.233Z,6.90
2023-05-08T21:45:12.817Z,6.18
2023-05-08T21:47:58.866Z,12.38
2023-05-08T21:50:44.508Z,11.23
2023-05-08T21:53:29.801Z,16.67
2023-05-08T21:56:16.590Z,9.95
2023-05-08T21:59:01.817Z,11.85
2023-05-08T22:01:47.278Z,8.90
2023-05-08T22:04:32.827Z,10.85
2023-05-08T22:07:19.227Z,13.30
2023-05-08T22:10:05.505Z,12.10
2023-05-08T22:12:51.732Z,16.73
2023-05-08T22:15:37.405Z,21.08
2023-05-08T22:18:23.220Z,12.93
2023-05-08T22:21:08.801Z,13.25
2023-05-08T22:23:54.108Z,19.88
2023-05-08T22:26:39.592Z,13.18
2023-05-08T22:29:25.006Z,15.20
2023-05-08T22:32:10.497Z,17.95
2023-05-08T22:34:55.952Z,11.90
2023-05-08T22:37:41.756Z,14.88
2023-05-08T22:40:27.508Z,10.50
2023-05-08T22:43:12.828Z,14.60
2023-05-08T22:45:58.786Z,13.98
2023-05-08T22:48:44.973Z,16.65
2023-05-08T22:51:30.631Z,17.40
2023-05-08T22:54:16.271Z,18.60
2023-05-08T22:57:02.803Z,20.95
2023-05-08T22:59:48.353Z,28.42
2023-05-08T23:02:34.989Z,21.98
2023-05-08T23:05:20.555Z,16.17
2023-05-08T23:08:06.243Z,18.85
2023-05-08T23:10:51.784Z,15.60
2023-05-08T23:13:37.015Z,14.82
2023-05-08T23:16:22.436Z,23.58
2023-05-08T23:19:07.809Z,17.27
2023-05-08T23:21:53.525Z,18.10
2023-05-08T23:24:38.950Z,18.23
2023-05-08T23:27:24.346Z,23.75
2023-05-08T23:30:13.264Z,19.65
2023-05-08T23:32:59.145Z,22.98
2023-05-08T23:35:44.451Z,15.13
2023-05-08T23:38:29.987Z,15.75
2023-05-08T23:41:15.314Z,20.52
2023-05-08T23:44:00.672Z,24.70
2023-05-08T23:46:46.465Z,20.23
2023-05-08T23:49:32.130Z,15.10
2023-05-08T23:52:17.554Z,22.95
2023-05-08T23:55:03.814Z,16.23
2023-05-08T23:57:49.480Z,28.08
